Time;durP1;ratioP1;P1;durP2;ratioP2;P2;SDS_P1;SDS_P2;PMS_P1;PMS_P2;Temp;Humidity;BMP_temperature;BMP_pressure;BME280_temperature;BME280_humidity;BME280_pressure;Samples;Min_cycle;Max_cycle;Signal;HPM_P1;HPM_P2
2021/12/27 00:01:47;;;;;;;33.90;16.30;;;;;;;-6.30;78.82;99831.73;106164;1318;22270;-65
2021/12/27 00:04:15;;;;;;;32.50;16.10;;;;;;;-6.29;78.81;99834.84;106027;1316;138447;-65
2021/12/27 00:06:44;;;;;;;35.10;15.60;;;;;;;-6.27;78.83;99836.06;106178;1319;22469;-65
2021/12/27 00:09:23;;;;;;;34.50;15.90;;;;;;;-6.24;78.78;99836.38;106195;1315;22438;-65
2021/12/27 00:12:04;;;;;;;33.60;15.40;;;;;;;-6.22;78.82;99839.52;106079;1316;139953;-65
2021/12/27 00:14:34;;;;;;;33.10;16.10;;;;;;;-6.19;78.98;99844.98;106215;1316;22407;-65
2021/12/27 00:17:02;;;;;;;32.00;14.10;;;;;;;-6.17;79.00;99847.69;106080;1318;138692;-66
2021/12/27 00:19:50;;;;;;;28.50;14.00;;;;;;;-6.14;78.78;99844.77;106199;1317;22535;-67
2021/12/27 00:22:19;;;;;;;29.60;13.40;;;;;;;-6.11;78.74;99844.13;106096;1318;138463;-67
2021/12/27 00:24:47;;;;;;;29.90;14.50;;;;;;;-6.10;78.80;99848.03;106187;1316;22490;-67
2021/12/27 00:27:16;;;;;;;27.40;12.20;;;;;;;-6.10;78.82;99848.41;106168;1319;23720;-66
2021/12/27 00:29:46;;;;;;;33.30;14.30;;;;;;;-6.08;78.77;99849.87;106092;1317;138841;-67
2021/12/27 00:32:13;;;;;;;34.70;15.30;;;;;;;-6.08;78.68;99854.91;106206;1317;22472;-66
2021/12/27 00:34:41;;;;;;;28.50;13.80;;;;;;;-6.06;78.70;99853.74;106084;1316;138456;-66
2021/12/27 00:37:09;;;;;;;26.90;12.80;;;;;;;-6.07;78.73;99852.88;106166;1316;22604;-66
2021/12/27 00:39:37;;;;;;;37.50;15.20;;;;;;;-6.05;78.75;99853.28;106201;1316;22487;-66
2021/12/27 00:42:06;;;;;;;37.10;15.80;;;;;;;-6.02;78.78;99854.75;106089;1317;138411;-67
2021/12/27 00:44:34;;;;;;;32.10;15.20;;;;;;;-6.00;78.84;99856.14;106182;1319;23681;-67
2021/12/27 00:47:02;;;;;;;30.40;15.00;;;;;;;-5.97;78.73;99854.33;106098;1315;139610;-67
2021/12/27 00:49:30;;;;;;;41.20;16.70;;;;;;;-5.96;78.86;99858.62;106204;1316;22588;-67
2021/12/27 00:51:58;;;;;;;46.10;16.90;;;;;;;-5.94;78.76;99855.02;106053;1318;22352;-66
2021/12/27 00:54:26;;;;;;;32.00;14.70;;;;;;;-5.91;78.78;99857.81;106109;1316;138480;-65
2021/12/27 00:56:54;;;;;;;33.50;14.80;;;;;;;-5.90;78.65;99858.77;106151;1318;22553;-65
2021/12/27 00:59:23;;;;;;;32.20;14.20;;;;;;;-5.87;78.72;99864.48;105926;1316;138473;-65
2021/12/27 01:01:50;;;;;;;30.50;14.30;;;;;;;-5.86;78.60;99862.40;106199;1317;22571;-65
2021/12/27 01:04:19;;;;;;;28.10;12.80;;;;;;;-5.88;78.67;99859.40;106081;1316;138592;-65
2021/12/27 01:06:47;;;;;;;34.90;13.20;;;;;;;-5.91;78.62;99856.34;103542;1321;22608;-62
2021/12/27 01:09:26;;;;;;;30.80;13.10;;;;;;;-5.92;78.70;99857.11;102122;1323;24003;-63
2021/12/27 01:12:12;;;;;;;24.30;12.30;;;;;;;-5.93;78.75;99857.81;101963;1320;139238;-62
2021/12/27 01:14:43;;;;;;;30.50;14.80;;;;;;;-5.96;78.90;99858.06;102132;1319;22989;-63
2021/12/27 01:17:11;;;;;;;30.10;14.40;;;;;;;-5.99;78.87;99863.85;101938;1324;138744;-63
2021/12/27 01:19:58;;;;;;;23.10;11.00;;;;;;;-6.01;78.89;99866.36;102092;1316;26120;-61
2021/12/27 01:22:26;;;;;;;24.90;12.20;;;;;;;-6.01;79.02;99868.98;102008;1316;138804;-61
2021/12/27 01:24:54;;;;;;;23.70;11.80;;;;;;;-6.03;79.10;99871.14;102201;1318;22638;-62
2021/12/27 01:27:22;;;;;;;30.30;13.00;;;;;;;-6.06;79.24;99870.85;102053;1316;25489;-63
2021/12/27 01:29:49;;;;;;;29.80;13.60;;;;;;;-6.09;79.35;99878.59;102069;1320;138945;-63
2021/12/27 01:32:18;;;;;;;32.70;13.10;;;;;;;-6.14;79.33;99877.92;102091;1316;22559;-62
2021/12/27 01:34:45;;;;;;;27.70;12.10;;;;;;;-6.16;79.50;99879.74;101988;1316;138847;-62
2021/12/27 01:37:13;;;;;;;24.20;12.60;;;;;;;-6.18;79.59;99881.52;102331;1323;22582;-66
2021/12/27 01:39:42;;;;;;;22.90;11.70;;;;;;;-6.17;79.72;99881.44;106126;1321;23211;-66
2021/12/27 01:42:10;;;;;;;20.40;11.20;;;;;;;-6.15;79.85;99881.27;106060;1321;138980;-67
2021/12/27 01:44:39;;;;;;;20.80;11.10;;;;;;;-6.14;79.98;99878.31;106200;1321;23080;-66
2021/12/27 01:47:09;;;;;;;21.70;10.80;;;;;;;-6.11;79.96;99876.25;106042;1316;139505;-66
2021/12/27 01:49:37;;;;;;;21.10;10.50;;;;;;;-6.08;80.11;99881.67;106200;1316;22470;-66
2021/12/27 01:52:06;;;;;;;21.30;10.80;;;;;;;-6.08;80.02;99881.61;106176;1321;23353;-66
2021/12/27 01:54:34;;;;;;;22.90;9.20;;;;;;;-6.07;80.05;99880.69;106066;1320;138128;-66
2021/12/27 01:57:02;;;;;;;18.60;10.10;;;;;;;-6.07;80.02;99886.46;106092;1324;22519;-66
2021/12/27 01:59:31;;;;;;;22.30;10.10;;;;;;;-6.06;80.26;99887.42;105457;1324;141186;-65
2021/12/27 02:01:59;;;;;;;22.30;10.70;;;;;;;-6.04;80.17;99888.00;102144;1316;26615;-65
2021/12/27 02:04:28;;;;;;;22.40;12.00;;;;;;;-6.04;80.15;99887.48;101941;1316;138578;-66
2021/12/27 02:06:56;;;;;;;19.60;10.40;;;;;;;-6.05;79.93;99890.25;106139;1316;23391;-67
2021/12/27 02:09:33;;;;;;;22.00;11.80;;;;;;;-6.12;79.71;99890.48;106218;1316;22407;-67
2021/12/27 02:12:02;;;;;;;24.40;12.10;;;;;;;-6.21;79.59;99884.11;106079;1321;140843;-67
2021/12/27 02:14:30;;;;;;;27.30;12.90;;;;;;;-6.25;79.80;99887.70;106179;1316;22470;-66
2021/12/27 02:16:59;;;;;;;29.80;14.20;;;;;;;-6.29;79.97;99886.60;106073;1316;138742;-67
2021/12/27 02:19:27;;;;;;;23.20;11.90;;;;;;;-6.31;80.00;99887.48;104999;1322;22912;-66
2021/12/27 02:21:57;;;;;;;26.60;13.40;;;;;;;-6.34;80.05;99886.45;106126;1321;23291;-66
2021/12/27 02:24:24;;;;;;;24.80;12.90;;;;;;;-6.37;80.17;99886.65;106023;1319;139575;-66
2021/12/27 02:26:52;;;;;;;23.90;12.60;;;;;;;-6.37;80.25;99888.97;105117;1325;22582;-66
2021/12/27 02:29:20;;;;;;;23.50;11.80;;;;;;;-6.35;80.38;99890.39;105685;1316;138925;-66
2021/12/27 02:31:51;;;;;;;24.00;12.70;;;;;;;-6.36;80.37;99897.23;106202;1316;22466;-66
2021/12/27 02:34:19;;;;;;;23.50;12.50;;;;;;;-6.39;80.41;99890.98;106033;1316;139610;-66
2021/12/27 02:36:48;;;;;;;25.10;11.90;;;;;;;-6.41;80.54;99893.40;103406;1316;23182;-64
2021/12/27 02:39:17;;;;;;;23.00;10.90;;;;;;;-6.45;80.64;99896.96;102132;1321;25400;-64
2021/12/27 02:41:45;;;;;;;27.80;13.70;;;;;;;-6.49;80.69;99898.90;101998;1316;138600;-64
2021/12/27 02:44:12;;;;;;;24.20;12.50;;;;;;;-6.52;80.77;99903.27;102027;1316;23142;-64
2021/12/27 02:46:41;;;;;;;22.60;12.00;;;;;;;-6.55;80.94;99906.39;101955;1319;139651;-64
2021/12/27 02:49:09;;;;;;;22.50;11.90;;;;;;;-6.57;81.12;99903.14;102070;1316;25252;-64
2021/12/27 02:51:37;;;;;;;25.20;13.50;;;;;;;-6.55;81.35;99901.61;102118;1318;25351;-63
2021/12/27 02:54:05;;;;;;;22.30;12.80;;;;;;;-6.52;81.50;99899.38;102041;1321;138402;-63
2021/12/27 02:56:35;;;;;;;23.60;12.80;;;;;;;-6.50;81.59;99898.44;102158;1316;24324;-63
2021/12/27 02:59:03;;;;;;;21.70;12.10;;;;;;;-6.50;81.52;99903.56;102067;1318;141532;-63
2021/12/27 03:01:32;;;;;;;27.50;12.90;;;;;;;-6.49;81.55;99905.49;106132;1321;23437;-61
2021/12/27 03:03:59;;;;;;;28.30;13.60;;;;;;;-6.52;81.59;99904.52;106079;1316;22452;-62
2021/12/27 03:06:28;;;;;;;22.20;12.00;;;;;;;-6.55;81.61;99910.81;106113;1321;139622;-62
2021/12/27 03:08:56;;;;;;;27.10;12.30;;;;;;;-6.61;81.48;99909.68;105113;1321;22482;-62
2021/12/27 03:11:24;;;;;;;22.50;12.60;;;;;;;-6.63;81.66;99907.61;106033;1317;140089;-62
2021/12/27 03:13:52;;;;;;;26.00;14.50;;;;;;;-6.64;81.80;99908.27;106244;1316;22458;-63
2021/12/27 03:16:21;;;;;;;28.20;14.90;;;;;;;-6.67;81.83;99905.88;103910;1318;138826;-62
2021/12/27 03:18:53;;;;;;;25.20;14.60;;;;;;;-6.68;81.87;99909.31;106181;1319;22402;-62
2021/12/27 03:21:21;;;;;;;24.30;13.60;;;;;;;-6.68;82.00;99907.60;106207;1317;22296;-62
2021/12/27 03:23:49;;;;;;;25.90;14.00;;;;;;;-6.68;82.13;99910.34;105149;1323;139222;-61
2021/12/27 03:26:18;;;;;;;34.50;15.60;;;;;;;-6.66;82.13;99907.73;106172;1319;22491;-62
2021/12/27 03:28:46;;;;;;;28.70;16.10;;;;;;;-6.65;82.27;99910.42;106063;1316;138731;-62
2021/12/27 03:31:20;;;;;;;32.60;16.40;;;;;;;-6.66;82.20;99914.49;106181;1316;22425;-63
2021/12/27 03:33:48;;;;;;;35.70;17.70;;;;;;;-6.67;82.29;99920.33;106181;1316;22513;-63
2021/12/27 03:36:23;;;;;;;31.80;17.40;;;;;;;-6.65;82.47;99924.23;106082;1316;138401;-63
2021/12/27 03:38:52;;;;;;;34.30;17.30;;;;;;;-6.62;82.58;99923.96;106014;1319;202288;-63
2021/12/27 03:41:22;;;;;;;32.00;17.50;;;;;;;-6.58;82.67;99931.34;105459;1316;138554;-63
2021/12/27 03:43:50;;;;;;;28.60;15.30;;;;;;;-6.55;82.75;99928.61;106177;1316;22421;-63
2021/12/27 03:46:18;;;;;;;29.80;16.40;;;;;;;-6.49;82.74;99931.23;104146;1315;138964;-65
2021/12/27 03:48:46;;;;;;;26.90;15.50;;;;;;;-6.45;82.67;99936.86;102104;1321;22992;-67
2021/12/27 03:51:14;;;;;;;30.20;15.30;;;;;;;-6.42;82.54;99937.84;102030;1316;22595;-66
2021/12/27 03:53:42;;;;;;;30.10;15.70;;;;;;;-6.43;82.50;99940.39;101851;1322;138252;-66
2021/12/27 03:56:10;;;;;;;33.20;17.20;;;;;;;-6.46;82.32;99942.45;102158;1318;24333;-66
2021/12/27 04:01:33;;;;;;;24.40;14.20;;;;;;;-6.53;82.51;99945.89;101140;1324;25354;-65
2021/12/27 04:04:01;;;;;;;29.40;15.00;;;;;;;-6.52;82.68;99948.29;105308;1328;22670;-66
2021/12/27 04:06:29;;;;;;;26.40;15.00;;;;;;;-6.51;82.59;99950.16;105183;1329;138726;-66
2021/12/27 04:08:57;;;;;;;31.70;17.00;;;;;;;-6.51;82.70;99948.01;105327;1327;23192;-67
2021/12/27 04:11:28;;;;;;;27.80;15.40;;;;;;;-6.50;82.56;99946.56;105234;1330;140177;-66
2021/12/27 04:13:59;;;;;;;22.60;13.60;;;;;;;-6.52;82.70;99950.05;105296;1324;22421;-67
2021/12/27 04:16:27;;;;;;;26.10;14.20;;;;;;;-6.50;82.76;99951.83;105254;1329;139870;-66
2021/12/27 04:18:55;;;;;;;27.90;17.10;;;;;;;-6.50;82.68;99951.66;105279;1328;22399;-66
2021/12/27 04:21:23;;;;;;;27.40;15.20;;;;;;;-6.49;82.76;99954.06;105168;1330;24240;-66
2021/12/27 04:23:51;;;;;;;29.00;15.00;;;;;;;-6.49;82.66;99961.11;105087;1330;139370;-67
2021/12/27 04:26:19;;;;;;;27.10;15.00;;;;;;;-6.51;82.54;99960.55;105332;1324;23007;-67
2021/12/27 04:28:47;;;;;;;26.60;14.80;;;;;;;-6.53;82.48;99967.81;105146;1327;138573;-66
2021/12/27 04:31:16;;;;;;;23.30;14.80;;;;;;;-6.54;82.52;99968.79;105332;1327;22550;-67
2021/12/27 04:33:44;;;;;;;28.70;14.80;;;;;;;-6.54;82.49;99974.98;105323;1324;22563;-67
2021/12/27 04:36:12;;;;;;;29.00;14.90;;;;;;;-6.54;82.50;99973.00;105219;1327;140130;-67
2021/12/27 04:38:42;;;;;;;24.90;13.60;;;;;;;-6.52;82.55;99980.14;105644;1324;22489;-66
2021/12/27 04:41:12;;;;;;;24.30;14.60;;;;;;;-6.53;82.43;99984.61;106115;1316;138958;-66
2021/12/27 04:43:40;;;;;;;24.00;14.90;;;;;;;-6.55;82.45;99986.19;106180;1320;23612;-66
2021/12/27 04:46:08;;;;;;;26.80;14.90;;;;;;;-6.52;82.45;99990.55;106189;1321;22392;-58
2021/12/27 04:48:37;;;;;;;24.40;13.90;;;;;;;-6.50;82.38;99992.34;106028;1316;138679;-58
2021/12/27 04:51:05;;;;;;;26.90;15.50;;;;;;;-6.50;82.39;99992.27;106155;1317;22514;-58
2021/12/27 04:53:34;;;;;;;33.50;16.30;;;;;;;-6.49;82.40;99999.98;106080;1316;139644;-58
2021/12/27 04:56:02;;;;;;;30.50;16.70;;;;;;;-6.51;82.36;99997.50;106201;1319;23192;-57
2021/12/27 04:58:30;;;;;;;24.90;14.30;;;;;;;-6.49;82.31;99998.53;106109;1316;138630;-57
2021/12/27 05:00:58;;;;;;;34.40;17.30;;;;;;;-6.45;82.29;100003.16;106171;1318;22479;-57
2021/12/27 05:03:26;;;;;;;28.80;15.90;;;;;;;-6.42;82.30;100007.27;106154;1316;22475;-58
2021/12/27 05:05:54;;;;;;;33.90;17.70;;;;;;;-6.39;82.34;100005.10;106118;1320;138705;-59
2021/12/27 05:08:22;;;;;;;26.00;16.20;;;;;;;-6.35;82.30;100004.58;106158;1320;22491;-58
2021/12/27 05:10:50;;;;;;;27.80;16.90;;;;;;;-6.33;82.30;100004.56;106028;1318;139056;-58
2021/12/27 05:13:18;;;;;;;29.50;16.70;;;;;;;-6.32;82.29;100005.70;106148;1316;22412;-58
2021/12/27 05:15:46;;;;;;;81.00;33.50;;;;;;;-6.30;82.38;100015.05;105193;1316;22608;-58
2021/12/27 05:18:15;;;;;;;89.50;36.30;;;;;;;-6.27;82.46;100014.45;102037;1316;138721;-56
2021/12/27 05:20:44;;;;;;;76.80;31.60;;;;;;;-6.26;82.47;100015.27;104996;1324;23748;-58
2021/12/27 05:23:12;;;;;;;82.80;33.40;;;;;;;-6.23;82.44;100017.76;106073;1316;139697;-58
2021/12/27 05:25:40;;;;;;;65.80;30.10;;;;;;;-6.23;82.40;100020.77;106185;1317;22481;-58
2021/12/27 05:28:09;;;;;;;58.20;27.60;;;;;;;-6.24;82.18;100027.63;106136;1318;22564;-58
2021/12/27 05:30:38;;;;;;;58.60;24.50;;;;;;;-6.26;82.11;100028.30;106065;1318;138386;-58
2021/12/27 05:33:06;;;;;;;51.30;23.50;;;;;;;-6.27;82.10;100034.88;106154;1316;23458;-58
2021/12/27 05:35:34;;;;;;;40.70;20.80;;;;;;;-6.26;82.25;100036.39;106071;1316;139415;-58
2021/12/27 05:38:02;;;;;;;37.50;20.90;;;;;;;-6.22;82.32;100040.48;106172;1318;22490;-58
2021/12/27 05:40:30;;;;;;;35.90;19.70;;;;;;;-6.20;82.31;100040.80;104961;1316;138851;-58
2021/12/27 05:42:58;;;;;;;32.40;19.30;;;;;;;-6.18;82.31;100041.48;106176;1316;22460;-57
2021/12/27 05:45:26;;;;;;;39.00;20.10;;;;;;;-6.13;82.53;100041.62;106181;1317;23727;-57
2021/12/27 05:47:55;;;;;;;40.70;22.00;;;;;;;-6.10;82.43;100047.67;106073;1316;140062;-57
2021/12/27 05:50:23;;;;;;;42.20;21.70;;;;;;;-6.09;82.40;100045.42;105758;1316;23281;-58
2021/12/27 05:52:52;;;;;;;48.40;21.80;;;;;;;-6.07;82.34;100049.37;106096;1318;139855;-57
2021/12/27 05:55:20;;;;;;;42.90;22.60;;;;;;;-6.06;82.23;100052.76;106154;1316;22470;-58
2021/12/27 05:57:48;;;;;;;33.00;19.30;;;;;;;-6.04;82.31;100055.23;106165;1316;22505;-57
2021/12/27 06:00:16;;;;;;;31.20;19.30;;;;;;;-6.02;82.15;100059.17;106075;1316;141489;-57
2021/12/27 06:02:44;;;;;;;31.90;19.20;;;;;;;-6.00;82.23;100061.64;106138;1316;22410;-57
2021/12/27 06:05:13;;;;;;;30.40;20.00;;;;;;;-5.98;82.32;100061.65;105647;1322;138596;-57
2021/12/27 06:07:41;;;;;;;41.90;22.10;;;;;;;-5.98;82.26;100066.39;106194;1316;22554;-57
2021/12/27 06:10:09;;;;;;;35.40;19.70;;;;;;;-5.97;82.44;100068.27;106177;1316;22545;-57
2021/12/27 06:12:38;;;;;;;36.80;20.40;;;;;;;-5.94;82.47;100062.91;106017;1317;138421;-57
2021/12/27 06:15:07;;;;;;;38.80;20.30;;;;;;;-5.91;82.50;100071.77;106181;1316;22412;-57
2021/12/27 06:17:37;;;;;;;30.90;18.20;;;;;;;-5.88;82.56;100076.96;105702;1316;138331;-57
2021/12/27 06:20:07;;;;;;;30.40;17.70;;;;;;;-5.85;82.59;100078.06;106175;1316;22665;-58
2021/12/27 06:22:39;;;;;;;36.30;20.60;;;;;;;-5.82;82.62;100082.90;106058;1320;138968;-58
2021/12/27 06:25:10;;;;;;;25.30;15.80;;;;;;;-5.77;82.70;100080.73;106183;1320;23201;-57
2021/12/27 06:27:38;;;;;;;29.10;17.40;;;;;;;-5.73;82.69;100082.30;101995;1322;25461;-58
2021/12/27 06:30:07;;;;;;;30.40;18.00;;;;;;;-5.69;82.75;100079.98;102053;1319;138507;-57
2021/12/27 06:32:36;;;;;;;33.10;14.90;;;;;;;-5.66;82.63;100081.11;106167;1318;22497;-58
2021/12/27 06:35:05;;;;;;;27.70;14.60;;;;;;;-5.66;82.49;100086.08;106056;1318;138613;-58
2021/12/27 06:37:33;;;;;;;26.60;16.70;;;;;;;-5.71;82.34;100085.45;106205;1316;22434;-58
2021/12/27 06:40:01;;;;;;;30.70;16.20;;;;;;;-5.75;82.49;100084.02;106196;1319;22407;-58
2021/12/27 06:42:30;;;;;;;29.60;17.30;;;;;;;-5.78;82.54;100085.05;105366;1318;139126;-59
2021/12/27 06:45:00;;;;;;;34.10;17.30;;;;;;;-5.80;82.58;100089.14;106134;1316;23324;-58
2021/12/27 06:47:28;;;;;;;28.70;15.20;;;;;;;-5.84;82.52;100093.00;106027;1316;138646;-59
2021/12/27 06:49:57;;;;;;;25.30;14.70;;;;;;;-5.87;82.48;100094.73;106109;1318;22526;-59
2021/12/27 06:52:25;;;;;;;28.20;15.20;;;;;;;-5.90;82.60;100097.29;105980;1316;138205;-58
2021/12/27 06:54:53;;;;;;;32.60;16.50;;;;;;;-5.92;82.55;100100.12;106197;1316;22420;-58
2021/12/27 06:57:29;;;;;;;29.30;15.40;;;;;;;-5.93;82.54;100095.72;106197;1319;22474;-58
2021/12/27 06:59:58;;;;;;;30.90;16.50;;;;;;;-5.95;82.76;100097.23;105935;1318;139066;-58
2021/12/27 07:02:26;;;;;;;29.40;15.90;;;;;;;-5.96;82.71;100097.23;106123;1316;24369;-58
2021/12/27 07:04:55;;;;;;;30.20;18.70;;;;;;;-5.98;82.87;100092.55;105992;1315;138649;-58
2021/12/27 07:07:24;;;;;;;24.70;13.70;;;;;;;-5.97;82.88;100100.13;106178;1318;22409;-58
2021/12/27 07:09:52;;;;;;;31.20;18.70;;;;;;;-5.97;82.87;100107.74;106144;1316;23264;-58
2021/12/27 07:12:19;;;;;;;27.30;16.10;;;;;;;-5.99;82.92;100104.36;106046;1318;138357;-59
2021/12/27 07:14:48;;;;;;;35.40;19.30;;;;;;;-6.00;82.94;100109.36;106177;1316;22491;-59
2021/12/27 07:17:16;;;;;;;31.30;15.70;;;;;;;-6.00;82.92;100111.51;106021;1320;138726;-59
2021/12/27 07:19:45;;;;;;;27.20;15.40;;;;;;;-6.00;83.02;100116.31;106160;1319;22646;-58
2021/12/27 07:22:13;;;;;;;29.10;16.20;;;;;;;-6.01;82.99;100115.80;106150;1318;22499;-59
2021/12/27 07:24:41;;;;;;;27.90;15.20;;;;;;;-6.01;83.12;100118.67;106082;1318;138541;-58
2021/12/27 07:27:09;;;;;;;27.50;15.40;;;;;;;-6.01;83.15;100120.05;105225;1318;22528;-58
2021/12/27 07:29:37;;;;;;;26.40;15.80;;;;;;;-5.99;83.18;100118.86;106032;1318;138221;-58
2021/12/27 07:32:06;;;;;;;30.60;16.30;;;;;;;-5.97;83.23;100121.70;106177;1316;22477;-58
2021/12/27 07:34:39;;;;;;;27.80;15.50;;;;;;;-5.97;83.26;100123.47;106049;1316;139744;-58
2021/12/27 07:37:07;;;;;;;27.60;15.50;;;;;;;-5.97;83.33;100125.20;105940;1323;22505;-58
2021/12/27 07:41:23;;;;;;;30.40;15.60;;;;;;;-5.90;83.50;100130.56;99300;1352;545764;-57
2021/12/27 07:43:50;;;;;;;27.70;16.10;;;;;;;-5.93;83.38;100132.77;101069;1329;25475;-57
2021/12/27 07:46:19;;;;;;;26.40;15.40;;;;;;;-5.91;83.41;100135.47;100981;1328;22586;-57
2021/12/27 07:48:47;;;;;;;26.00;15.90;;;;;;;-5.92;83.52;100129.30;104910;1329;137502;-58
2021/12/27 07:51:15;;;;;;;31.80;17.00;;;;;;;-5.90;83.47;100134.83;105176;1328;22610;-58
2021/12/27 07:53:43;;;;;;;31.40;17.30;;;;;;;-5.91;83.35;100131.36;105073;1328;138864;-57
2021/12/27 07:56:11;;;;;;;30.40;16.70;;;;;;;-5.92;83.45;100132.02;105150;1328;136153;-59
2021/12/27 07:58:39;;;;;;;33.00;17.50;;;;;;;-5.93;83.37;100135.27;105260;1325;139125;-59
2021/12/27 08:01:07;;;;;;;40.70;17.60;;;;;;;-5.93;83.52;100138.48;105382;1325;22622;-59
2021/12/27 08:03:35;;;;;;;31.80;18.00;;;;;;;-5.93;83.36;100138.67;105379;1325;23028;-59
2021/12/27 08:06:03;;;;;;;40.40;20.70;;;;;;;-5.94;83.33;100138.55;105287;1325;138946;-59
2021/12/27 08:08:31;;;;;;;37.30;20.30;;;;;;;-5.96;83.21;100135.90;105411;1332;22517;-59
2021/12/27 08:10:59;;;;;;;45.00;22.40;;;;;;;-5.98;83.28;100139.44;105333;1325;138408;-59
2021/12/27 08:13:27;;;;;;;37.30;20.90;;;;;;;-5.99;83.29;100143.95;105367;1330;22515;-59
2021/12/27 08:15:55;;;;;;;37.80;20.90;;;;;;;-6.00;83.41;100142.95;105437;1326;22409;-59
2021/12/27 08:18:22;;;;;;;41.40;21.80;;;;;;;-5.99;83.48;100140.58;105378;1325;138359;-58
2021/12/27 08:20:51;;;;;;;42.40;22.10;;;;;;;-5.98;83.45;100144.79;105538;1325;22410;-59
2021/12/27 08:23:19;;;;;;;45.90;22.50;;;;;;;-5.99;83.33;100142.59;105345;1325;138079;-59
2021/12/27 08:25:47;;;;;;;40.80;21.10;;;;;;;-6.01;83.48;100143.08;105220;1331;22493;-59
2021/12/27 08:28:15;;;;;;;35.80;18.80;;;;;;;-6.04;83.37;100143.71;105275;1325;22421;-59
2021/12/27 08:30:42;;;;;;;37.00;19.20;;;;;;;-6.06;83.43;100146.35;105265;1329;137653;-59
2021/12/27 08:33:10;;;;;;;36.30;22.20;;;;;;;-6.07;83.51;100147.27;105363;1328;22528;-59
2021/12/27 08:35:40;;;;;;;37.50;19.60;;;;;;;-6.05;83.71;100148.88;104534;1326;139533;-59
2021/12/27 08:38:10;;;;;;;41.80;22.90;;;;;;;-6.02;83.79;100149.34;101247;1325;25396;-58
2021/12/27 08:40:38;;;;;;;40.10;21.60;;;;;;;-5.99;83.84;100151.05;105145;1325;138775;-59
2021/12/27 08:43:06;;;;;;;42.10;21.70;;;;;;;-5.97;83.98;100147.65;105272;1328;22545;-59
2021/12/27 08:45:34;;;;;;;43.80;23.00;;;;;;;-5.94;83.93;100143.50;105311;1326;22506;-59
2021/12/27 08:48:02;;;;;;;40.30;21.20;;;;;;;-5.90;83.93;100145.30;105226;1325;138009;-59
2021/12/27 08:50:30;;;;;;;44.90;20.30;;;;;;;-5.88;83.83;100138.83;104662;1330;22605;-60
2021/12/27 08:52:58;;;;;;;38.50;20.90;;;;;;;-5.85;83.83;100134.48;105124;1328;138756;-60
2021/12/27 08:55:26;;;;;;;42.30;22.20;;;;;;;-5.82;83.88;100130.38;105392;1325;22474;-60
2021/12/27 08:57:54;;;;;;;47.50;22.70;;;;;;;-5.79;83.93;100126.14;105358;1332;22487;-60
2021/12/27 09:00:22;;;;;;;47.40;25.20;;;;;;;-5.74;83.88;100125.36;105169;1326;137955;-59
2021/12/27 09:02:50;;;;;;;45.50;23.70;;;;;;;-5.72;83.94;100130.96;105500;1325;22465;-61
2021/12/27 09:05:19;;;;;;;41.30;23.40;;;;;;;-5.68;83.92;100132.67;105163;1326;139362;-59
2021/12/27 09:07:47;;;;;;;43.90;24.30;;;;;;;-5.66;83.87;100131.20;105339;1325;22475;-60
2021/12/27 09:10:15;;;;;;;45.50;25.30;;;;;;;-5.64;83.74;100132.27;105339;1325;23342;-59
2021/12/27 09:12:47;;;;;;;44.10;22.20;;;;;;;-5.63;83.64;100129.73;105233;1325;138842;-59
2021/12/27 09:15:15;;;;;;;40.70;21.00;;;;;;;-5.63;83.63;100123.65;105336;1331;22512;-59
2021/12/27 09:17:43;;;;;;;39.30;22.30;;;;;;;-5.63;83.60;100123.15;105506;1325;138861;-59
2021/12/27 09:20:11;;;;;;;42.40;22.70;;;;;;;-5.64;83.37;100123.91;105590;1325;22390;-58
2021/12/27 09:22:40;;;;;;;44.90;23.80;;;;;;;-5.64;83.30;100120.56;105365;1330;138490;-58
2021/12/27 09:25:08;;;;;;;41.00;21.80;;;;;;;-5.66;83.23;100116.48;105580;1325;23257;-58
2021/12/27 09:27:37;;;;;;;41.60;22.40;;;;;;;-5.67;83.25;100117.29;105551;1325;22593;-59
2021/12/27 09:30:05;;;;;;;41.70;21.90;;;;;;;-5.67;83.22;100118.06;105383;1325;138370;-59
2021/12/27 09:32:34;;;;;;;44.40;21.90;;;;;;;-5.69;83.28;100120.30;105717;1322;22494;-59
2021/12/27 09:35:03;;;;;;;43.00;23.40;;;;;;;-5.68;83.24;100117.95;105645;1322;138674;-59
2021/12/27 09:37:31;;;;;;;42.20;20.90;;;;;;;-5.68;83.25;100112.68;105819;1322;22517;-59
2021/12/27 09:40:09;;;;;;;40.50;21.10;;;;;;;-5.69;83.28;100111.13;105428;1323;22535;-59
2021/12/27 09:42:38;;;;;;;47.80;23.60;;;;;;;-5.70;83.32;100110.30;105794;1322;139313;-60
2021/12/27 09:45:06;;;;;;;44.40;23.10;;;;;;;-5.69;83.27;100112.50;105916;1327;22485;-59
2021/12/27 09:47:40;;;;;;;44.20;23.70;;;;;;;-5.68;83.37;100115.63;105703;1326;138446;-60
2021/12/27 09:50:23;;;;;;;45.30;24.60;;;;;;;-5.66;83.41;100123.05;105732;1322;22589;-60
2021/12/27 09:52:51;;;;;;;46.60;23.90;;;;;;;-5.65;83.40;100126.67;105559;1322;138143;-59
2021/12/27 09:55:19;;;;;;;45.30;24.20;;;;;;;-5.64;83.55;100126.59;105692;1322;22388;-60
2021/12/27 09:57:47;;;;;;;46.70;24.00;;;;;;;-5.61;83.51;100129.84;105658;1327;22405;-60
2021/12/27 10:00:20;;;;;;;48.80;25.50;;;;;;;-5.60;83.50;100131.82;105590;1322;138109;-60
2021/12/27 10:02:51;;;;;;;49.20;23.30;;;;;;;-5.59;83.44;100132.47;105648;1322;23467;-60
2021/12/27 10:05:23;;;;;;;43.50;23.10;;;;;;;-5.59;83.52;100125.42;105532;1322;138003;-60
2021/12/27 10:07:54;;;;;;;44.40;23.80;;;;;;;-5.58;83.43;100126.60;105729;1322;23105;-60
2021/12/27 10:10:35;;;;;;;46.70;24.20;;;;;;;-5.58;83.35;100124.63;105596;1323;138472;-59
2021/12/27 10:13:09;;;;;;;44.40;22.80;;;;;;;-5.60;83.23;100124.81;105675;1322;23021;-58
2021/12/27 10:15:50;;;;;;;49.90;24.40;;;;;;;-5.64;83.09;100125.39;105667;1322;22500;-58
2021/12/27 10:18:18;;;;;;;55.80;29.60;;;;;;;-5.68;83.12;100126.09;105424;1329;138244;-59
2021/12/27 10:20:47;;;;;;;48.30;26.10;;;;;;;-5.74;83.18;100121.80;105545;1323;22460;-59
2021/12/27 10:23:18;;;;;;;46.00;24.80;;;;;;;-5.77;83.34;100118.41;105577;1322;139323;-59
2021/12/27 10:25:50;;;;;;;57.10;26.60;;;;;;;-5.81;83.26;100120.69;105531;1322;22257;-58
2021/12/27 10:28:24;;;;;;;45.80;24.20;;;;;;;-5.83;83.26;100128.98;106168;1319;22405;-59
2021/12/27 10:30:59;;;;;;;48.70;24.30;;;;;;;-5.88;83.36;100132.86;106095;1318;138611;-58
2021/12/27 10:33:33;;;;;;;46.40;26.20;;;;;;;-5.92;83.43;100132.72;106079;1318;23478;-58
2021/12/27 10:36:10;;;;;;;50.20;26.90;;;;;;;-5.93;83.55;100133.86;105859;1319;138360;-59
2021/12/27 10:38:41;;;;;;;58.20;28.10;;;;;;;-5.91;83.78;100137.07;106181;1318;22408;-59
2021/12/27 10:41:10;;;;;;;67.30;30.90;;;;;;;-5.89;83.91;100130.85;106022;1319;140340;-59
2021/12/27 10:43:45;;;;;;;57.50;26.80;;;;;;;-5.85;83.94;100138.55;106132;1319;23441;-59
2021/12/27 10:46:33;;;;;;;50.40;24.70;;;;;;;-5.83;84.15;100141.19;106082;1322;139215;-59
2021/12/27 10:49:03;;;;;;;46.20;23.10;;;;;;;-5.81;84.07;100142.64;106132;1319;22604;-59
2021/12/27 10:51:31;;;;;;;46.10;22.70;;;;;;;-5.81;84.09;100144.96;105316;1325;22513;-59
2021/12/27 10:54:00;;;;;;;40.50;20.00;;;;;;;-5.82;84.13;100141.71;106009;1318;138467;-59
2021/12/27 10:56:49;;;;;;;36.10;18.90;;;;;;;-5.86;83.90;100140.59;106158;1319;22406;-59
2021/12/27 10:59:18;;;;;;;41.50;19.80;;;;;;;-5.87;84.02;100138.05;106066;1323;138666;-59
2021/12/27 11:01:47;;;;;;;47.80;22.20;;;;;;;-5.85;84.15;100140.31;106194;1320;22437;-59
2021/12/27 11:04:17;;;;;;;47.50;22.00;;;;;;;-5.81;84.11;100136.78;105996;1319;22555;-59
2021/12/27 11:06:46;;;;;;;36.00;18.40;;;;;;;-5.79;84.19;100139.27;106077;1323;138443;-59
2021/12/27 11:09:14;;;;;;;44.30;21.60;;;;;;;-5.75;84.22;100139.44;106182;1319;22377;-59
2021/12/27 11:11:42;;;;;;;43.60;22.30;;;;;;;-5.73;84.12;100133.77;106056;1318;138470;-59
2021/12/27 11:14:10;;;;;;;48.10;22.40;;;;;;;-5.73;84.11;100137.95;105968;1323;22722;-59
2021/12/27 11:16:39;;;;;;;38.90;18.60;;;;;;;-5.74;84.01;100139.69;103513;1318;139474;-58